sensor_id;sensor_type;location;lat;lon;timestamp;temperature;humidity
2973;DHT22;1496;51.404;7.232;2024-02-16T00:00:18;12.80;1.00
2973;DHT22;1496;51.404;7.232;2024-02-16T00:02:44;12.70;1.00
2973;DHT22;1496;51.404;7.232;2024-02-16T00:05:10;12.50;1.00
2973;DHT22;1496;51.404;7.232;2024-02-16T00:07:39;12.60;1.00
2973;DHT22;1496;51.404;7.232;2024-02-16T00:10:08;12.70;1.00
2973;DHT22;1496;51.404;7.232;2024-02-16T00:12:35;12.70;1.00
2973;DHT22;1496;51.404;7.232;2024-02-16T00:15:02;12.60;1.00
2973;DHT22;1496;51.404;7.232;2024-02-16T00:17:28;12.60;1.00
2973;DHT22;1496;51.404;7.232;2024-02-16T00:19:56;12.50;1.00
2973;DHT22;1496;51.404;7.232;2024-02-16T00:22:22;12.50;1.00
2973;DHT22;1496;51.404;7.232;2024-02-16T00:24:48;12.50;1.00
2973;DHT22;1496;51.404;7.232;2024-02-16T00:27:15;12.60;1.00
2973;DHT22;1496;51.404;7.232;2024-02-16T00:29:41;12.60;1.00
2973;DHT22;1496;51.404;7.232;2024-02-16T00:32:07;12.70;1.00
2973;DHT22;1496;51.404;7.232;2024-02-16T00:34:36;12.70;1.00
2973;DHT22;1496;51.404;7.232;2024-02-16T00:37:02;12.70;1.00
2973;DHT22;1496;51.404;7.232;2024-02-16T00:39:35;12.70;1.00
2973;DHT22;1496;51.404;7.232;2024-02-16T00:42:01;12.70;1.00
2973;DHT22;1496;51.404;7.232;2024-02-16T00:44:27;12.70;1.00
2973;DHT22;1496;51.404;7.232;2024-02-16T00:46:52;12.70;1.00
2973;DHT22;1496;51.404;7.232;2024-02-16T00:49:18;12.70;1.00
2973;DHT22;1496;51.404;7.232;2024-02-16T00:51:44;12.70;1.00
2973;DHT22;1496;51.404;7.232;2024-02-16T00:54:09;12.70;1.00
2973;DHT22;1496;51.404;7.232;2024-02-16T00:56:35;12.70;1.00
2973;DHT22;1496;51.404;7.232;2024-02-16T00:59:00;12.70;1.00
2973;DHT22;1496;51.404;7.232;2024-02-16T01:01:27;12.80;1.00
2973;DHT22;1496;51.404;7.232;2024-02-16T01:03:53;12.70;1.00
2973;DHT22;1496;51.404;7.232;2024-02-16T01:06:18;12.70;1.00
2973;DHT22;1496;51.404;7.232;2024-02-16T01:08:44;12.80;1.00
2973;DHT22;1496;51.404;7.232;2024-02-16T01:11:10;12.90;1.00
2973;DHT22;1496;51.404;7.232;2024-02-16T01:13:36;12.90;1.00
2973;DHT22;1496;51.404;7.232;2024-02-16T01:16:03;12.80;1.00
2973;DHT22;1496;51.404;7.232;2024-02-16T01:18:29;12.70;1.00
2973;DHT22;1496;51.404;7.232;2024-02-16T01:20:55;12.70;1.00
2973;DHT22;1496;51.404;7.232;2024-02-16T01:23:21;12.50;1.00
2973;DHT22;1496;51.404;7.232;2024-02-16T01:25:47;12.50;1.00
2973;DHT22;1496;51.404;7.232;2024-02-16T01:28:13;12.40;1.00
2973;DHT22;1496;51.404;7.232;2024-02-16T01:30:39;12.40;1.00
2973;DHT22;1496;51.404;7.232;2024-02-16T01:33:05;12.40;1.00
2973;DHT22;1496;51.404;7.232;2024-02-16T01:35:32;12.50;1.00
2973;DHT22;1496;51.404;7.232;2024-02-16T01:37:58;12.40;1.00
2973;DHT22;1496;51.404;7.232;2024-02-16T01:40:25;12.40;1.00
2973;DHT22;1496;51.404;7.232;2024-02-16T01:42:52;12.40;1.00
2973;DHT22;1496;51.404;7.232;2024-02-16T01:45:20;12.40;1.00
2973;DHT22;1496;51.404;7.232;2024-02-16T01:47:51;12.60;1.00
2973;DHT22;1496;51.404;7.232;2024-02-16T01:50:18;12.60;1.00
2973;DHT22;1496;51.404;7.232;2024-02-16T01:52:45;12.70;1.00
2973;DHT22;1496;51.404;7.232;2024-02-16T01:55:12;12.80;1.00
2973;DHT22;1496;51.404;7.232;2024-02-16T01:57:43;12.70;1.00
2973;DHT22;1496;51.404;7.232;2024-02-16T02:00:09;12.70;1.00
2973;DHT22;1496;51.404;7.232;2024-02-16T02:02:36;12.70;1.00
2973;DHT22;1496;51.404;7.232;2024-02-16T02:05:02;12.80;1.00
2973;DHT22;1496;51.404;7.232;2024-02-16T02:07:28;12.90;1.00
2973;DHT22;1496;51.404;7.232;2024-02-16T02:09:54;12.80;1.00
2973;DHT22;1496;51.404;7.232;2024-02-16T02:12:19;12.80;1.00
2973;DHT22;1496;51.404;7.232;2024-02-16T02:14:45;12.90;1.00
2973;DHT22;1496;51.404;7.232;2024-02-16T02:17:12;12.90;1.00
2973;DHT22;1496;51.404;7.232;2024-02-16T02:19:38;12.80;1.00
2973;DHT22;1496;51.404;7.232;2024-02-16T02:22:04;12.70;1.00
2973;DHT22;1496;51.404;7.232;2024-02-16T02:24:30;12.70;1.00
2973;DHT22;1496;51.404;7.232;2024-02-16T02:26:56;12.60;1.00
2973;DHT22;1496;51.404;7.232;2024-02-16T02:29:23;12.60;1.00
2973;DHT22;1496;51.404;7.232;2024-02-16T02:31:49;12.60;1.00
2973;DHT22;1496;51.404;7.232;2024-02-16T02:34:14;12.70;1.00
2973;DHT22;1496;51.404;7.232;2024-02-16T02:36:40;12.70;1.00
2973;DHT22;1496;51.404;7.232;2024-02-16T02:39:06;12.70;1.00
2973;DHT22;1496;51.404;7.232;2024-02-16T02:41:32;12.50;1.00
2973;DHT22;1496;51.404;7.232;2024-02-16T02:43:58;12.50;1.00
2973;DHT22;1496;51.404;7.232;2024-02-16T02:46:23;12.50;1.00
2973;DHT22;1496;51.404;7.232;2024-02-16T02:48:50;12.60;1.00
2973;DHT22;1496;51.404;7.232;2024-02-16T02:51:16;12.50;1.00
2973;DHT22;1496;51.404;7.232;2024-02-16T02:53:42;12.50;1.00
2973;DHT22;1496;51.404;7.232;2024-02-16T02:56:08;12.50;1.00
2973;DHT22;1496;51.404;7.232;2024-02-16T02:58:34;12.30;1.00
2973;DHT22;1496;51.404;7.232;2024-02-16T03:01:00;12.30;1.00
2973;DHT22;1496;51.404;7.232;2024-02-16T03:03:25;12.40;1.00
2973;DHT22;1496;51.404;7.232;2024-02-16T03:05:51;12.50;1.00
2973;DHT22;1496;51.404;7.232;2024-02-16T03:08:17;12.40;1.00
2973;DHT22;1496;51.404;7.232;2024-02-16T03:10:43;12.40;1.00
2973;DHT22;1496;51.404;7.232;2024-02-16T03:13:10;12.40;1.00
2973;DHT22;1496;51.404;7.232;2024-02-16T03:15:38;12.40;1.00
2973;DHT22;1496;51.404;7.232;2024-02-16T03:18:05;12.30;1.00
2973;DHT22;1496;51.404;7.232;2024-02-16T03:20:34;12.30;1.00
2973;DHT22;1496;51.404;7.232;2024-02-16T03:23:01;12.30;1.00
2973;DHT22;1496;51.404;7.232;2024-02-16T03:25:26;12.40;1.00
2973;DHT22;1496;51.404;7.232;2024-02-16T03:27:52;12.50;1.00
2973;DHT22;1496;51.404;7.232;2024-02-16T03:30:20;12.60;1.00
2973;DHT22;1496;51.404;7.232;2024-02-16T03:32:50;12.70;1.00
2973;DHT22;1496;51.404;7.232;2024-02-16T03:35:16;12.70;1.00
2973;DHT22;1496;51.404;7.232;2024-02-16T03:37:42;12.70;1.00
2973;DHT22;1496;51.404;7.232;2024-02-16T03:40:08;12.70;1.00
2973;DHT22;1496;51.404;7.232;2024-02-16T03:42:36;12.70;1.00
2973;DHT22;1496;51.404;7.232;2024-02-16T03:45:02;12.70;1.00
2973;DHT22;1496;51.404;7.232;2024-02-16T03:47:28;12.80;1.00
2973;DHT22;1496;51.404;7.232;2024-02-16T03:49:54;12.60;1.00
2973;DHT22;1496;51.404;7.232;2024-02-16T03:52:19;12.60;1.00
2973;DHT22;1496;51.404;7.232;2024-02-16T03:54:45;12.50;1.00
2973;DHT22;1496;51.404;7.232;2024-02-16T03:57:14;12.60;1.00
2973;DHT22;1496;51.404;7.232;2024-02-16T03:59:45;12.60;1.00
2973;DHT22;1496;51.404;7.232;2024-02-16T04:02:12;12.60;1.00
2973;DHT22;1496;51.404;7.232;2024-02-16T04:04:41;12.60;1.00
2973;DHT22;1496;51.404;7.232;2024-02-16T04:07:07;12.60;1.00
2973;DHT22;1496;51.404;7.232;2024-02-16T04:09:33;12.60;1.00
2973;DHT22;1496;51.404;7.232;2024-02-16T04:12:00;12.70;1.00
2973;DHT22;1496;51.404;7.232;2024-02-16T04:14:26;12.70;1.00
2973;DHT22;1496;51.404;7.232;2024-02-16T04:16:52;12.70;1.00
2973;DHT22;1496;51.404;7.232;2024-02-16T04:19:18;12.70;1.00
2973;DHT22;1496;51.404;7.232;2024-02-16T04:21:43;12.70;1.00
2973;DHT22;1496;51.404;7.232;2024-02-16T04:24:09;12.60;1.00
2973;DHT22;1496;51.404;7.232;2024-02-16T04:26:35;12.60;1.00
2973;DHT22;1496;51.404;7.232;2024-02-16T04:29:02;12.50;1.00
2973;DHT22;1496;51.404;7.232;2024-02-16T04:31:29;12.50;1.00
2973;DHT22;1496;51.404;7.232;2024-02-16T04:33:55;12.50;1.00
2973;DHT22;1496;51.404;7.232;2024-02-16T04:36:21;12.60;1.00
2973;DHT22;1496;51.404;7.232;2024-02-16T04:38:46;12.60;1.00
2973;DHT22;1496;51.404;7.232;2024-02-16T04:41:13;12.50;1.00
2973;DHT22;1496;51.404;7.232;2024-02-16T04:43:38;12.50;1.00
2973;DHT22;1496;51.404;7.232;2024-02-16T04:46:05;12.60;1.00
2973;DHT22;1496;51.404;7.232;2024-02-16T04:48:31;12.60;1.00
2973;DHT22;1496;51.404;7.232;2024-02-16T04:50:57;12.70;1.00
2973;DHT22;1496;51.404;7.232;2024-02-16T04:53:23;12.70;1.00
2973;DHT22;1496;51.404;7.232;2024-02-16T04:55:49;12.60;1.00
2973;DHT22;1496;51.404;7.232;2024-02-16T04:58:15;12.70;1.00
2973;DHT22;1496;51.404;7.232;2024-02-16T05:00:40;12.60;1.00
2973;DHT22;1496;51.404;7.232;2024-02-16T05:03:06;12.60;1.00
2973;DHT22;1496;51.404;7.232;2024-02-16T05:05:32;12.60;1.00
2973;DHT22;1496;51.404;7.232;2024-02-16T05:07:57;12.60;1.00
2973;DHT22;1496;51.404;7.232;2024-02-16T05:10:23;12.60;1.00
2973;DHT22;1496;51.404;7.232;2024-02-16T05:12:49;12.60;1.00
2973;DHT22;1496;51.404;7.232;2024-02-16T05:15:15;12.50;1.00
2973;DHT22;1496;51.404;7.232;2024-02-16T05:17:42;12.40;1.00
2973;DHT22;1496;51.404;7.232;2024-02-16T05:20:10;12.50;1.00
2973;DHT22;1496;51.404;7.232;2024-02-16T05:22:43;12.50;1.00
2973;DHT22;1496;51.404;7.232;2024-02-16T05:25:14;12.40;1.00
2973;DHT22;1496;51.404;7.232;2024-02-16T05:27:40;12.40;1.00
2973;DHT22;1496;51.404;7.232;2024-02-16T05:30:08;12.30;1.00
2973;DHT22;1496;51.404;7.232;2024-02-16T05:32:35;12.40;1.00
2973;DHT22;1496;51.404;7.232;2024-02-16T05:35:06;12.40;1.00
2973;DHT22;1496;51.404;7.232;2024-02-16T05:37:40;12.20;1.00
2973;DHT22;1496;51.404;7.232;2024-02-16T05:40:09;12.10;1.00
2973;DHT22;1496;51.404;7.232;2024-02-16T05:42:47;12.10;1.00
2973;DHT22;1496;51.404;7.232;2024-02-16T05:45:16;12.00;1.00
2973;DHT22;1496;51.404;7.232;2024-02-16T05:47:45;12.00;1.00
2973;DHT22;1496;51.404;7.232;2024-02-16T05:50:15;12.00;1.00
2973;DHT22;1496;51.404;7.232;2024-02-16T05:52:41;12.00;1.00
2973;DHT22;1496;51.404;7.232;2024-02-16T05:55:08;12.00;1.00
2973;DHT22;1496;51.404;7.232;2024-02-16T05:57:35;11.90;1.00
2973;DHT22;1496;51.404;7.232;2024-02-16T06:00:02;12.00;1.00
2973;DHT22;1496;51.404;7.232;2024-02-16T06:02:31;12.10;1.00
2973;DHT22;1496;51.404;7.232;2024-02-16T06:04:57;12.30;1.00
2973;DHT22;1496;51.404;7.232;2024-02-16T06:07:23;12.50;1.00
2973;DHT22;1496;51.404;7.232;2024-02-16T06:09:48;12.50;1.00
2973;DHT22;1496;51.404;7.232;2024-02-16T06:12:14;12.40;1.00
2973;DHT22;1496;51.404;7.232;2024-02-16T06:14:41;12.40;1.00
2973;DHT22;1496;51.404;7.232;2024-02-16T06:17:07;12.50;1.00
2973;DHT22;1496;51.404;7.232;2024-02-16T06:19:35;12.50;1.00
2973;DHT22;1496;51.404;7.232;2024-02-16T06:22:00;12.40;1.00
2973;DHT22;1496;51.404;7.232;2024-02-16T06:24:26;12.40;1.00
2973;DHT22;1496;51.404;7.232;2024-02-16T06:26:53;12.40;1.00
2973;DHT22;1496;51.404;7.232;2024-02-16T06:29:20;12.60;1.00
2973;DHT22;1496;51.404;7.232;2024-02-16T06:31:48;12.60;1.00
2973;DHT22;1496;51.404;7.232;2024-02-16T06:34:15;12.40;1.00
2973;DHT22;1496;51.404;7.232;2024-02-16T06:36:41;12.30;1.00
2973;DHT22;1496;51.404;7.232;2024-02-16T06:39:07;12.30;1.00
2973;DHT22;1496;51.404;7.232;2024-02-16T06:41:32;12.20;1.00
2973;DHT22;1496;51.404;7.232;2024-02-16T06:43:58;12.10;1.00
2973;DHT22;1496;51.404;7.232;2024-02-16T06:46:23;12.20;1.00
2973;DHT22;1496;51.404;7.232;2024-02-16T06:48:50;12.30;1.00
2973;DHT22;1496;51.404;7.232;2024-02-16T06:51:17;12.20;1.00
2973;DHT22;1496;51.404;7.232;2024-02-16T06:53:43;12.20;1.00
2973;DHT22;1496;51.404;7.232;2024-02-16T06:56:09;12.10;1.00
2973;DHT22;1496;51.404;7.232;2024-02-16T06:58:35;12.00;1.00
2973;DHT22;1496;51.404;7.232;2024-02-16T07:01:02;12.00;1.00
2973;DHT22;1496;51.404;7.232;2024-02-16T07:03:29;12.00;1.00
2973;DHT22;1496;51.404;7.232;2024-02-16T07:05:55;12.10;1.00
2973;DHT22;1496;51.404;7.232;2024-02-16T07:08:21;12.00;1.00
2973;DHT22;1496;51.404;7.232;2024-02-16T07:10:50;11.90;1.00
2973;DHT22;1496;51.404;7.232;2024-02-16T07:13:18;11.80;1.00
2973;DHT22;1496;51.404;7.232;2024-02-16T07:15:44;11.90;1.00
2973;DHT22;1496;51.404;7.232;2024-02-16T07:18:09;11.90;1.00
2973;DHT22;1496;51.404;7.232;2024-02-16T07:20:35;11.90;1.00
2973;DHT22;1496;51.404;7.232;2024-02-16T07:23:02;12.00;1.00
2973;DHT22;1496;51.404;7.232;2024-02-16T07:25:27;12.20;1.00
2973;DHT22;1496;51.404;7.232;2024-02-16T07:27:54;12.30;1.00
2973;DHT22;1496;51.404;7.232;2024-02-16T07:30:20;12.40;1.00
2973;DHT22;1496;51.404;7.232;2024-02-16T07:32:49;12.50;1.00
2973;DHT22;1496;51.404;7.232;2024-02-16T07:35:16;12.60;1.00
2973;DHT22;1496;51.404;7.232;2024-02-16T07:37:42;12.60;1.00
2973;DHT22;1496;51.404;7.232;2024-02-16T07:40:09;12.70;1.00
2973;DHT22;1496;51.404;7.232;2024-02-16T07:42:39;12.60;1.00
2973;DHT22;1496;51.404;7.232;2024-02-16T07:45:08;12.70;1.00
2973;DHT22;1496;51.404;7.232;2024-02-16T07:47:35;12.70;1.00
2973;DHT22;1496;51.404;7.232;2024-02-16T07:50:01;12.70;1.00
2973;DHT22;1496;51.404;7.232;2024-02-16T07:52:26;12.80;1.00
2973;DHT22;1496;51.404;7.232;2024-02-16T07:54:52;12.70;1.00
2973;DHT22;1496;51.404;7.232;2024-02-16T07:57:18;12.70;1.00
2973;DHT22;1496;51.404;7.232;2024-02-16T07:59:43;12.80;1.00
2973;DHT22;1496;51.404;7.232;2024-02-16T08:02:09;12.60;1.00
2973;DHT22;1496;51.404;7.232;2024-02-16T08:04:40;12.60;1.00
2973;DHT22;1496;51.404;7.232;2024-02-16T08:07:06;12.60;1.00
2973;DHT22;1496;51.404;7.232;2024-02-16T08:09:32;12.60;1.00
2973;DHT22;1496;51.404;7.232;2024-02-16T08:11:58;12.80;1.00
2973;DHT22;1496;51.404;7.232;2024-02-16T08:14:25;13.00;1.00
2973;DHT22;1496;51.404;7.232;2024-02-16T08:16:51;13.00;1.00
2973;DHT22;1496;51.404;7.232;2024-02-16T08:19:16;13.00;1.00
2973;DHT22;1496;51.404;7.232;2024-02-16T08:21:42;12.90;1.00
2973;DHT22;1496;51.404;7.232;2024-02-16T08:24:08;13.10;1.00
2973;DHT22;1496;51.404;7.232;2024-02-16T08:26:33;13.20;1.00
2973;DHT22;1496;51.404;7.232;2024-02-16T08:28:59;13.20;1.00
2973;DHT22;1496;51.404;7.232;2024-02-16T08:31:25;13.20;1.00
2973;DHT22;1496;51.404;7.232;2024-02-16T08:33:51;13.30;1.00
2973;DHT22;1496;51.404;7.232;2024-02-16T08:36:16;13.20;1.00
2973;DHT22;1496;51.404;7.232;2024-02-16T08:38:42;13.30;1.00
2973;DHT22;1496;51.404;7.232;2024-02-16T08:41:08;13.30;1.00
2973;DHT22;1496;51.404;7.232;2024-02-16T08:43:34;13.20;1.00
2973;DHT22;1496;51.404;7.232;2024-02-16T08:45:59;13.30;1.00
2973;DHT22;1496;51.404;7.232;2024-02-16T08:48:28;13.30;1.00
2973;DHT22;1496;51.404;7.232;2024-02-16T08:50:55;13.30;1.00
2973;DHT22;1496;51.404;7.232;2024-02-16T08:53:20;13.20;1.00
2973;DHT22;1496;51.404;7.232;2024-02-16T08:55:46;13.20;1.00
2973;DHT22;1496;51.404;7.232;2024-02-16T08:58:12;13.30;1.00
2973;DHT22;1496;51.404;7.232;2024-02-16T09:00:38;13.40;1.00
2973;DHT22;1496;51.404;7.232;2024-02-16T09:03:04;13.50;1.00
2973;DHT22;1496;51.404;7.232;2024-02-16T09:05:31;13.50;1.00
2973;DHT22;1496;51.404;7.232;2024-02-16T09:07:57;13.60;1.00
2973;DHT22;1496;51.404;7.232;2024-02-16T09:10:23;13.50;1.00
2973;DHT22;1496;51.404;7.232;2024-02-16T09:12:48;13.70;1.00
2973;DHT22;1496;51.404;7.232;2024-02-16T09:15:14;13.70;1.00
2973;DHT22;1496;51.404;7.232;2024-02-16T09:17:40;13.80;1.00
2973;DHT22;1496;51.404;7.232;2024-02-16T09:20:06;13.70;1.00
2973;DHT22;1496;51.404;7.232;2024-02-16T09:22:33;13.60;1.00
2973;DHT22;1496;51.404;7.232;2024-02-16T09:24:59;13.60;1.00
2973;DHT22;1496;51.404;7.232;2024-02-16T09:27:26;13.60;1.00
2973;DHT22;1496;51.404;7.232;2024-02-16T09:29:51;13.60;1.00
2973;DHT22;1496;51.404;7.232;2024-02-16T09:32:18;13.60;1.00
2973;DHT22;1496;51.404;7.232;2024-02-16T09:34:43;13.60;1.00
2973;DHT22;1496;51.404;7.232;2024-02-16T09:37:09;13.60;1.00
2973;DHT22;1496;51.404;7.232;2024-02-16T09:39:37;13.60;1.00
2973;DHT22;1496;51.404;7.232;2024-02-16T09:42:02;13.60;1.00
2973;DHT22;1496;51.404;7.232;2024-02-16T09:44:28;13.60;1.00
2973;DHT22;1496;51.404;7.232;2024-02-16T09:46:54;13.70;1.00
2973;DHT22;1496;51.404;7.232;2024-02-16T09:49:21;13.80;1.00
2973;DHT22;1496;51.404;7.232;2024-02-16T09:51:46;13.80;1.00
2973;DHT22;1496;51.404;7.232;2024-02-16T09:54:12;13.90;1.00
2973;DHT22;1496;51.404;7.232;2024-02-16T09:56:38;13.90;1.00
2973;DHT22;1496;51.404;7.232;2024-02-16T09:59:04;13.90;1.00
2973;DHT22;1496;51.404;7.232;2024-02-16T10:01:29;13.90;1.00
2973;DHT22;1496;51.404;7.232;2024-02-16T10:04:05;13.90;1.00
2973;DHT22;1496;51.404;7.232;2024-02-16T10:06:32;14.00;1.00
2973;DHT22;1496;51.404;7.232;2024-02-16T10:08:57;14.00;1.00
2973;DHT22;1496;51.404;7.232;2024-02-16T10:11:25;14.00;1.00
2973;DHT22;1496;51.404;7.232;2024-02-16T10:14:03;14.00;1.00
2973;DHT22;1496;51.404;7.232;2024-02-16T10:16:30;13.90;1.00
2973;DHT22;1496;51.404;7.232;2024-02-16T10:18:57;13.80;1.00
2973;DHT22;1496;51.404;7.232;2024-02-16T10:21:29;13.80;1.00
2973;DHT22;1496;51.404;7.232;2024-02-16T10:23:57;13.70;1.00
2973;DHT22;1496;51.404;7.232;2024-02-16T10:26:23;13.70;1.00
2973;DHT22;1496;51.404;7.232;2024-02-16T10:28:51;13.80;1.00
2973;DHT22;1496;51.404;7.232;2024-02-16T10:31:19;13.80;1.00
2973;DHT22;1496;51.404;7.232;2024-02-16T10:33:50;13.90;1.00
2973;DHT22;1496;51.404;7.232;2024-02-16T10:36:17;14.00;1.00
2973;DHT22;1496;51.404;7.232;2024-02-16T10:38:44;14.00;1.00
2973;DHT22;1496;51.404;7.232;2024-02-16T10:41:11;14.10;1.00
2973;DHT22;1496;51.404;7.232;2024-02-16T10:43:36;14.10;1.00
2973;DHT22;1496;51.404;7.232;2024-02-16T10:46:02;14.20;1.00
2973;DHT22;1496;51.404;7.232;2024-02-16T10:48:29;14.20;1.00
2973;DHT22;1496;51.404;7.232;2024-02-16T10:50:55;14.30;1.00
2973;DHT22;1496;51.404;7.232;2024-02-16T10:53:25;14.40;1.00
2973;DHT22;1496;51.404;7.232;2024-02-16T10:55:51;14.40;1.00
2973;DHT22;1496;51.404;7.232;2024-02-16T10:58:18;14.40;1.00
2973;DHT22;1496;51.404;7.232;2024-02-16T11:00:51;14.50;1.00
2973;DHT22;1496;51.404;7.232;2024-02-16T11:03:22;14.60;1.00
2973;DHT22;1496;51.404;7.232;2024-02-16T11:05:51;14.60;1.00
2973;DHT22;1496;51.404;7.232;2024-02-16T11:08:23;14.70;1.00
2973;DHT22;1496;51.404;7.232;2024-02-16T11:10:59;14.60;1.00
2973;DHT22;1496;51.404;7.232;2024-02-16T11:13:31;14.40;1.00
2973;DHT22;1496;51.404;7.232;2024-02-16T11:18:25;14.40;1.00
2973;DHT22;1496;51.404;7.232;2024-02-16T11:20:52;14.50;1.00
2973;DHT22;1496;51.404;7.232;2024-02-16T11:23:26;14.50;1.00
2973;DHT22;1496;51.404;7.232;2024-02-16T11:25:53;14.40;1.00
2973;DHT22;1496;51.404;7.232;2024-02-16T11:28:19;14.40;1.00
2973;DHT22;1496;51.404;7.232;2024-02-16T11:30:44;14.30;1.00
2973;DHT22;1496;51.404;7.232;2024-02-16T11:33:13;14.30;1.00
2973;DHT22;1496;51.404;7.232;2024-02-16T11:35:39;14.30;1.00
2973;DHT22;1496;51.404;7.232;2024-02-16T11:38:05;14.30;1.00
2973;DHT22;1496;51.404;7.232;2024-02-16T11:40:31;14.40;1.00
2973;DHT22;1496;51.404;7.232;2024-02-16T11:42:58;14.40;1.00
2973;DHT22;1496;51.404;7.232;2024-02-16T11:45:24;14.30;1.00
2973;DHT22;1496;51.404;7.232;2024-02-16T11:47:50;14.30;1.00
2973;DHT22;1496;51.404;7.232;2024-02-16T11:50:17;14.20;1.00
2973;DHT22;1496;51.404;7.232;2024-02-16T11:52:43;14.20;1.00
2973;DHT22;1496;51.404;7.232;2024-02-16T11:55:10;14.10;1.00
2973;DHT22;1496;51.404;7.232;2024-02-16T11:57:37;14.10;1.00
2973;DHT22;1496;51.404;7.232;2024-02-16T12:00:04;14.10;1.00
2973;DHT22;1496;51.404;7.232;2024-02-16T12:02:35;14.20;1.00
2973;DHT22;1496;51.404;7.232;2024-02-16T12:05:01;14.20;1.00
2973;DHT22;1496;51.404;7.232;2024-02-16T12:07:27;14.10;1.00
2973;DHT22;1496;51.404;7.232;2024-02-16T12:09:57;14.10;1.00
2973;DHT22;1496;51.404;7.232;2024-02-16T12:12:24;14.10;1.00
2973;DHT22;1496;51.404;7.232;2024-02-16T12:14:50;14.10;1.00
2973;DHT22;1496;51.404;7.232;2024-02-16T12:17:15;14.00;1.00
2973;DHT22;1496;51.404;7.232;2024-02-16T12:19:45;14.00;1.00
2973;DHT22;1496;51.404;7.232;2024-02-16T12:22:19;14.00;1.00
2973;DHT22;1496;51.404;7.232;2024-02-16T12:24:46;14.00;1.00
2973;DHT22;1496;51.404;7.232;2024-02-16T12:27:12;14.00;1.00
2973;DHT22;1496;51.404;7.232;2024-02-16T12:29:38;13.80;1.00
2973;DHT22;1496;51.404;7.232;2024-02-16T12:32:05;13.70;1.00
2973;DHT22;1496;51.404;7.232;2024-02-16T12:34:30;13.70;1.00
2973;DHT22;1496;51.404;7.232;2024-02-16T12:36:56;13.70;1.00
2973;DHT22;1496;51.404;7.232;2024-02-16T12:39:22;13.80;1.00
2973;DHT22;1496;51.404;7.232;2024-02-16T12:41:50;13.80;1.00
2973;DHT22;1496;51.404;7.232;2024-02-16T12:44:16;13.70;1.00
2973;DHT22;1496;51.404;7.232;2024-02-16T12:46:41;13.70;1.00
2973;DHT22;1496;51.404;7.232;2024-02-16T12:49:08;13.70;1.00
2973;DHT22;1496;51.404;7.232;2024-02-16T12:51:34;13.80;1.00
2973;DHT22;1496;51.404;7.232;2024-02-16T12:54:00;13.90;1.00
2973;DHT22;1496;51.404;7.232;2024-02-16T12:56:29;13.90;1.00
2973;DHT22;1496;51.404;7.232;2024-02-16T12:58:55;13.90;1.00
2973;DHT22;1496;51.404;7.232;2024-02-16T13:01:22;13.90;1.00
2973;DHT22;1496;51.404;7.232;2024-02-16T13:04:10;13.90;1.00
2973;DHT22;1496;51.404;7.232;2024-02-16T13:06:36;13.80;1.00
2973;DHT22;1496;51.404;7.232;2024-02-16T13:09:02;13.80;1.00
2973;DHT22;1496;51.404;7.232;2024-02-16T13:11:28;13.70;1.00
2973;DHT22;1496;51.404;7.232;2024-02-16T13:13:54;13.60;1.00
2973;DHT22;1496;51.404;7.232;2024-02-16T13:16:20;13.60;1.00
2973;DHT22;1496;51.404;7.232;2024-02-16T13:22:12;13.50;83.40
2973;DHT22;1496;51.404;7.232;2024-02-16T13:24:38;13.30;99.90
2973;DHT22;1496;51.404;7.232;2024-02-16T13:27:04;13.30;99.90
2973;DHT22;1496;51.404;7.232;2024-02-16T13:29:31;13.20;99.90
2973;DHT22;1496;51.404;7.232;2024-02-16T13:31:57;13.30;99.90
2973;DHT22;1496;51.404;7.232;2024-02-16T13:34:31;13.30;99.90
2973;DHT22;1496;51.404;7.232;2024-02-16T13:36:56;13.30;99.90
2973;DHT22;1496;51.404;7.232;2024-02-16T13:39:22;13.30;99.90
2973;DHT22;1496;51.404;7.232;2024-02-16T13:41:49;13.20;99.90
2973;DHT22;1496;51.404;7.232;2024-02-16T13:44:17;13.10;99.90
2973;DHT22;1496;51.404;7.232;2024-02-16T13:46:45;13.00;99.90
2973;DHT22;1496;51.404;7.232;2024-02-16T13:49:12;12.80;99.90
2973;DHT22;1496;51.404;7.232;2024-02-16T13:51:40;12.70;99.90
2973;DHT22;1496;51.404;7.232;2024-02-16T13:54:06;12.60;1.00
2973;DHT22;1496;51.404;7.232;2024-02-16T13:56:31;12.70;1.00
2973;DHT22;1496;51.404;7.232;2024-02-16T13:58:57;12.60;69.00
2973;DHT22;1496;51.404;7.232;2024-02-16T14:01:23;12.60;1.00
2973;DHT22;1496;51.404;7.232;2024-02-16T14:07:52;12.50;1.00
2973;DHT22;1496;51.404;7.232;2024-02-16T14:10:17;12.40;1.00
2973;DHT22;1496;51.404;7.232;2024-02-16T14:12:45;12.40;99.90
2973;DHT22;1496;51.404;7.232;2024-02-16T14:15:12;12.40;99.90
2973;DHT22;1496;51.404;7.232;2024-02-16T14:17:41;12.30;99.90
2973;DHT22;1496;51.404;7.232;2024-02-16T14:20:08;12.20;99.90
2973;DHT22;1496;51.404;7.232;2024-02-16T14:22:34;12.30;99.90
2973;DHT22;1496;51.404;7.232;2024-02-16T14:24:59;12.30;99.90
2973;DHT22;1496;51.404;7.232;2024-02-16T14:27:25;12.30;99.90
2973;DHT22;1496;51.404;7.232;2024-02-16T14:29:50;12.40;99.90
2973;DHT22;1496;51.404;7.232;2024-02-16T14:32:17;12.50;99.90
2973;DHT22;1496;51.404;7.232;2024-02-16T14:34:42;12.40;99.90
2973;DHT22;1496;51.404;7.232;2024-02-16T14:37:09;12.50;99.90
2973;DHT22;1496;51.404;7.232;2024-02-16T14:39:35;12.50;99.90
2973;DHT22;1496;51.404;7.232;2024-02-16T14:42:01;12.50;99.90
2973;DHT22;1496;51.404;7.232;2024-02-16T14:44:26;12.60;99.90
2973;DHT22;1496;51.404;7.232;2024-02-16T14:46:52;12.60;99.90
2973;DHT22;1496;51.404;7.232;2024-02-16T14:49:17;12.60;99.90
2973;DHT22;1496;51.404;7.232;2024-02-16T14:51:52;12.60;99.90
2973;DHT22;1496;51.404;7.232;2024-02-16T14:54:21;12.60;99.90
2973;DHT22;1496;51.404;7.232;2024-02-16T14:56:46;12.60;99.90
2973;DHT22;1496;51.404;7.232;2024-02-16T14:59:12;12.60;99.90
2973;DHT22;1496;51.404;7.232;2024-02-16T15:01:38;12.70;99.90
2973;DHT22;1496;51.404;7.232;2024-02-16T15:04:04;12.70;99.90
2973;DHT22;1496;51.404;7.232;2024-02-16T15:06:58;12.60;99.90
2973;DHT22;1496;51.404;7.232;2024-02-16T15:09:52;12.60;99.90
2973;DHT22;1496;51.404;7.232;2024-02-16T15:12:17;12.60;99.90
2973;DHT22;1496;51.404;7.232;2024-02-16T15:14:49;12.60;99.90
2973;DHT22;1496;51.404;7.232;2024-02-16T15:17:15;12.60;99.90
2973;DHT22;1496;51.404;7.232;2024-02-16T15:19:41;12.60;99.90
2973;DHT22;1496;51.404;7.232;2024-02-16T15:22:07;12.60;99.90
2973;DHT22;1496;51.404;7.232;2024-02-16T15:24:34;12.60;99.90
2973;DHT22;1496;51.404;7.232;2024-02-16T15:26:59;12.50;99.90
2973;DHT22;1496;51.404;7.232;2024-02-16T15:29:29;12.20;99.90
2973;DHT22;1496;51.404;7.232;2024-02-16T15:31:56;12.10;99.90
2973;DHT22;1496;51.404;7.232;2024-02-16T15:34:22;12.10;99.90
2973;DHT22;1496;51.404;7.232;2024-02-16T15:36:49;12.10;99.90
2973;DHT22;1496;51.404;7.232;2024-02-16T15:39:15;12.10;99.90
2973;DHT22;1496;51.404;7.232;2024-02-16T15:41:40;12.00;99.90
2973;DHT22;1496;51.404;7.232;2024-02-16T15:44:06;12.00;99.90
2973;DHT22;1496;51.404;7.232;2024-02-16T15:46:32;12.00;99.90
2973;DHT22;1496;51.404;7.232;2024-02-16T15:48:57;12.00;99.90
2973;DHT22;1496;51.404;7.232;2024-02-16T15:51:23;12.00;99.90
2973;DHT22;1496;51.404;7.232;2024-02-16T15:53:49;12.10;99.90
2973;DHT22;1496;51.404;7.232;2024-02-16T15:56:15;12.20;99.90
2973;DHT22;1496;51.404;7.232;2024-02-16T15:58:41;12.20;99.90
2973;DHT22;1496;51.404;7.232;2024-02-16T16:01:08;12.20;99.90
2973;DHT22;1496;51.404;7.232;2024-02-16T16:03:34;12.20;99.90
2973;DHT22;1496;51.404;7.232;2024-02-16T16:06:00;12.20;99.90
2973;DHT22;1496;51.404;7.232;2024-02-16T16:08:26;12.20;99.90
2973;DHT22;1496;51.404;7.232;2024-02-16T16:14:19;12.20;99.90
2973;DHT22;1496;51.404;7.232;2024-02-16T16:16:45;12.20;99.90
2973;DHT22;1496;51.404;7.232;2024-02-16T16:19:11;12.10;99.90
2973;DHT22;1496;51.404;7.232;2024-02-16T16:21:37;12.10;99.90
2973;DHT22;1496;51.404;7.232;2024-02-16T16:24:03;12.20;99.90